Terminal Aerodrome Forecast
Issued by NWS

Home | Current Version | Previous Version | Text Only | Print | Product List | Glossary On
Versions: 1 2 3 4 5 6 7 8 9 10 11 12
024
FTUS45 KVEF 310520
TAFDAG
TAF
KDAG 310520Z 3106/0106 26010G20KT P6SM SKC
     FM311500 30010KT P6SM FEW150
     FM312000 02007KT P6SM FEW150=

USA.gov is the U.S. government's official web portal to all federal, state and local government web resources and services.